KPTB/PTB METAR and TAF weather

Enter ICAO airport designator
Station Type Date Time Source
KPTB METAR 2020/11/27 14:15 UTC NOAA

KPTB 271415Z AUTO 03006KT 10SM CLR 13/09 A3010 RMK AO2 T01310092


Station Type Date Time Source
KPTB Decoded METAR 2020/11/27 14:15 UTC NOAA

Petersburg, Dinwiddie County Airport, VA, United States (KPTB) 37-11N 077-31W
Nov 27, 2020 - 09:15 AM EST / 2020.11.27 1415 UTC
Wind: from the NNE (030 degrees) at 7 MPH (6 KT):0
Visibility: 10 mile(s):0
Sky conditions: clear
Temperature: 55.6 F (13.1 C)
Dew Point: 48.6 F (9.2 C)
Relative Humidity: 77%
Pressure (altimeter): 30.1 in. Hg (1019 hPa)
ob: KPTB 271415Z AUTO 03006KT 10SM CLR 13/09 A3010 RMK AO2 T01310092
cycle: 14

Station Type Date Time Source
KPTB TAF UTC NOAA

Error!

Example: see airport list